SAS104 EDDH-EDDF
Flight info
| Callsign | SAS104 |
|---|---|
| Flight time | 0h 50m |
| Altitude | 30000 |
| Route | AMLUH2C AMLUH M852 DENIX DCT RIMET/N0483F310 T157 KOKEB/N0437F230 T157 KERAX KERAX5D |
| Aircraft | B77W/H-SDE1E2E3FGHIJ2J3J4J5M1RWXY/LB1D1 |
Departure
| Time | 2026-05-08 05:25 |
|---|---|
| Airport | Hamburg Helmut Schmidt Airport (EDDH) |
Arrival
| Time | 2026-05-08 06:15 |
|---|---|
| Airport | Frankfurt Main Airport (EDDF) |
| Time | Latitude | Longitude | Altitude | Speed | Heading |
|---|---|---|---|---|---|
| 2026-05-08 05:01 | 53.63015 | 10.00334 | 49 ft | 0 kts | 123° |
| 2026-05-08 05:17 | 53.63015 | 10.00332 | 53 ft | 3 kts | 123° |
| 2026-05-08 05:17 | 53.63027 | 10.00302 | 47 ft | 3 kts | 123° |
| 2026-05-08 05:17 | 53.63039 | 10.00272 | 46 ft | 3 kts | 123° |
| 2026-05-08 05:17 | 53.63050 | 10.00242 | 46 ft | 3 kts | 123° |
| 2026-05-08 05:18 | 53.63067 | 10.00221 | 49 ft | 3 kts | 198° |
| 2026-05-08 05:18 | 53.63071 | 10.00223 | 46 ft | 0 kts | 213° |
| 2026-05-08 05:20 | 53.63023 | 10.00170 | 49 ft | 14 kts | 213° |
| 2026-05-08 05:21 | 53.62938 | 10.00078 | 49 ft | 15 kts | 212° |
| 2026-05-08 05:21 | 53.62845 | 10.00070 | 51 ft | 15 kts | 150° |
| 2026-05-08 05:21 | 53.62755 | 10.00151 | 49 ft | 15 kts | 152° |
| 2026-05-08 05:21 | 53.62664 | 10.00229 | 50 ft | 15 kts | 153° |
| 2026-05-08 05:22 | 53.62582 | 10.00250 | 47 ft | 11 kts | 225° |
| 2026-05-08 05:22 | 53.62572 | 10.00215 | 53 ft | 0 kts | 245° |
| 2026-05-08 05:23 | 53.62571 | 10.00212 | 53 ft | 2 kts | 245° |
| 2026-05-08 05:23 | 53.62550 | 10.00135 | 46 ft | 11 kts | 245° |
| 2026-05-08 05:23 | 53.62554 | 10.00016 | 45 ft | 12 kts | 323° |
| 2026-05-08 05:24 | 53.62570 | 10.00004 | 48 ft | 1 kts | 336° |
| 2026-05-08 05:24 | 53.62578 | 9.99997 | 47 ft | 2 kts | 333° |
| 2026-05-08 05:24 | 53.62646 | 9.99940 | 45 ft | 28 kts | 333° |
| 2026-05-08 05:24 | 53.63045 | 9.99595 | 50 ft | 108 kts | 332° |
| 2026-05-08 05:25 | 53.63942 | 9.98813 | 153 ft | 171 kts | 334° |
| 2026-05-08 05:25 | 53.65002 | 9.97887 | 979 ft | 173 kts | 335° |
| 2026-05-08 05:25 | 53.66142 | 9.96910 | 1580 ft | 198 kts | 337° |
| 2026-05-08 05:25 | 53.67457 | 9.95795 | 2143 ft | 218 kts | 337° |
| 2026-05-08 05:26 | 53.68844 | 9.94738 | 3002 ft | 217 kts | 352° |
| 2026-05-08 05:26 | 53.70354 | 9.94610 | 3468 ft | 232 kts | 8° |
| 2026-05-08 05:26 | 53.72050 | 9.94771 | 3952 ft | 249 kts | 14° |
| 2026-05-08 05:26 | 53.73595 | 9.95999 | 4784 ft | 249 kts | 47° |
| 2026-05-08 05:27 | 53.74482 | 9.98467 | 5763 ft | 250 kts | 76° |
| 2026-05-08 05:27 | 53.74572 | 10.01435 | 6603 ft | 260 kts | 96° |
| 2026-05-08 05:27 | 53.74077 | 10.04388 | 7005 ft | 262 kts | 116° |
| 2026-05-08 05:27 | 53.73162 | 10.07066 | 7198 ft | 269 kts | 120° |
| 2026-05-08 05:28 | 53.72193 | 10.09810 | 7734 ft | 274 kts | 119° |
| 2026-05-08 05:28 | 53.71231 | 10.12593 | 8784 ft | 275 kts | 119° |
| 2026-05-08 05:28 | 53.70272 | 10.15415 | 9788 ft | 279 kts | 119° |
| 2026-05-08 05:28 | 53.69305 | 10.18253 | 10576 ft | 285 kts | 122° |
| 2026-05-08 05:29 | 53.67883 | 10.20703 | 10896 ft | 310 kts | 149° |
| 2026-05-08 05:29 | 53.65774 | 10.21998 | 11127 ft | 336 kts | 165° |
| 2026-05-08 05:29 | 53.63419 | 10.23021 | 11522 ft | 359 kts | 165° |
| 2026-05-08 05:29 | 53.60952 | 10.24098 | 12417 ft | 370 kts | 165° |
| 2026-05-08 05:30 | 53.58439 | 10.25211 | 13554 ft | 376 kts | 165° |
| 2026-05-08 05:30 | 53.56754 | 10.25967 | 14297 ft | 379 kts | 165° |
| 2026-05-08 05:30 | 53.54184 | 10.27131 | 15339 ft | 385 kts | 165° |
| 2026-05-08 05:30 | 53.51581 | 10.28321 | 16328 ft | 391 kts | 165° |
| 2026-05-08 05:31 | 53.48927 | 10.29537 | 17359 ft | 397 kts | 165° |
| 2026-05-08 05:31 | 53.45355 | 10.31174 | 18648 ft | 406 kts | 166° |
| 2026-05-08 05:31 | 53.42606 | 10.32432 | 19528 ft | 411 kts | 166° |
| 2026-05-08 05:31 | 53.40766 | 10.33266 | 20138 ft | 414 kts | 166° |
| 2026-05-08 05:32 | 53.37968 | 10.34523 | 21009 ft | 419 kts | 166° |
| 2026-05-08 05:32 | 53.35135 | 10.35789 | 21878 ft | 424 kts | 166° |
| 2026-05-08 05:32 | 53.32267 | 10.37069 | 22723 ft | 429 kts | 166° |
| 2026-05-08 05:32 | 53.29364 | 10.38365 | 23565 ft | 434 kts | 166° |
| 2026-05-08 05:33 | 53.26425 | 10.39678 | 24253 ft | 439 kts | 167° |
| 2026-05-08 05:33 | 53.23460 | 10.41002 | 24938 ft | 443 kts | 167° |
| 2026-05-08 05:33 | 53.20471 | 10.42335 | 25644 ft | 447 kts | 167° |
| 2026-05-08 05:33 | 53.17448 | 10.43677 | 26303 ft | 451 kts | 167° |
| 2026-05-08 05:34 | 53.14373 | 10.44732 | 26932 ft | 453 kts | 174° |
| 2026-05-08 05:34 | 53.11218 | 10.45197 | 27616 ft | 454 kts | 179° |
| 2026-05-08 05:34 | 53.08070 | 10.45158 | 28511 ft | 450 kts | 185° |
| 2026-05-08 05:34 | 53.05005 | 10.44726 | 29481 ft | 446 kts | 187° |
| 2026-05-08 05:35 | 53.01908 | 10.44265 | 30163 ft | 449 kts | 187° |
| 2026-05-08 05:35 | 52.95637 | 10.43345 | 30181 ft | 459 kts | 186° |
| 2026-05-08 05:35 | 52.92412 | 10.42885 | 30182 ft | 470 kts | 186° |
| 2026-05-08 05:36 | 52.89212 | 10.42437 | 30183 ft | 479 kts | 186° |
| 2026-05-08 05:36 | 52.82462 | 10.41512 | 30176 ft | 493 kts | 186° |
| 2026-05-08 05:37 | 52.75575 | 10.40581 | 30167 ft | 502 kts | 186° |
| 2026-05-08 05:37 | 52.68573 | 10.39636 | 30160 ft | 505 kts | 186° |
| 2026-05-08 05:38 | 52.61575 | 10.38693 | 30159 ft | 504 kts | 186° |
| 2026-05-08 05:38 | 52.54621 | 10.37757 | 30148 ft | 504 kts | 186° |
| 2026-05-08 05:39 | 52.47633 | 10.36820 | 30157 ft | 504 kts | 186° |
| 2026-05-08 05:39 | 52.40636 | 10.35884 | 30157 ft | 504 kts | 186° |
| 2026-05-08 05:40 | 52.33652 | 10.34952 | 30160 ft | 504 kts | 186° |
| 2026-05-08 05:40 | 52.26661 | 10.34023 | 30149 ft | 504 kts | 186° |
| 2026-05-08 05:41 | 52.19652 | 10.33094 | 30161 ft | 505 kts | 186° |
| 2026-05-08 05:41 | 52.12644 | 10.32168 | 30152 ft | 505 kts | 186° |
| 2026-05-08 05:42 | 52.05670 | 10.31250 | 30137 ft | 506 kts | 187° |
| 2026-05-08 05:42 | 51.98639 | 10.30327 | 30146 ft | 507 kts | 187° |
| 2026-05-08 05:43 | 51.91603 | 10.29407 | 30138 ft | 507 kts | 187° |
| 2026-05-08 05:43 | 51.84568 | 10.28491 | 30153 ft | 507 kts | 187° |
| 2026-05-08 05:44 | 51.77533 | 10.27574 | 30135 ft | 507 kts | 187° |
| 2026-05-08 05:44 | 51.70487 | 10.26660 | 30143 ft | 507 kts | 187° |
| 2026-05-08 05:45 | 51.66445 | 10.26138 | 30139 ft | 507 kts | 187° |
| 2026-05-08 05:45 | 51.59446 | 10.25237 | 30130 ft | 508 kts | 187° |
| 2026-05-08 05:46 | 51.52398 | 10.24330 | 30144 ft | 508 kts | 187° |
| 2026-05-08 05:46 | 51.45337 | 10.23424 | 30138 ft | 509 kts | 187° |
| 2026-05-08 05:47 | 51.38278 | 10.22522 | 30140 ft | 509 kts | 187° |
| 2026-05-08 05:47 | 51.31206 | 10.21781 | 30133 ft | 510 kts | 183° |
| 2026-05-08 05:48 | 51.24096 | 10.21729 | 30141 ft | 511 kts | 182° |
| 2026-05-08 05:48 | 51.16970 | 10.21647 | 30137 ft | 512 kts | 183° |
| 2026-05-08 05:49 | 51.09861 | 10.21520 | 30087 ft | 505 kts | 183° |
| 2026-05-08 05:49 | 51.06404 | 10.21456 | 29679 ft | 490 kts | 183° |
| 2026-05-08 05:49 | 51.03069 | 10.21393 | 28893 ft | 482 kts | 183° |
| 2026-05-08 05:49 | 50.99734 | 10.21327 | 28003 ft | 477 kts | 183° |
| 2026-05-08 05:50 | 50.96431 | 10.21260 | 27106 ft | 473 kts | 183° |
| 2026-05-08 05:50 | 50.93156 | 10.21152 | 26227 ft | 465 kts | 186° |
| 2026-05-08 05:50 | 50.90009 | 10.20206 | 25330 ft | 459 kts | 201° |
| 2026-05-08 05:50 | 50.87160 | 10.18022 | 24469 ft | 453 kts | 214° |
| 2026-05-08 05:51 | 50.84663 | 10.15020 | 23664 ft | 447 kts | 224° |
| 2026-05-08 05:51 | 50.82478 | 10.11586 | 22824 ft | 440 kts | 226° |
| 2026-05-08 05:51 | 50.80319 | 10.08181 | 22009 ft | 436 kts | 226° |
| 2026-05-08 05:51 | 50.78167 | 10.04831 | 21206 ft | 432 kts | 225° |
| 2026-05-08 05:52 | 50.76219 | 10.01823 | 20530 ft | 428 kts | 225° |
| 2026-05-08 05:52 | 50.74372 | 9.98987 | 19892 ft | 425 kts | 225° |
| 2026-05-08 05:52 | 50.72255 | 9.95745 | 19175 ft | 421 kts | 225° |
| 2026-05-08 05:52 | 50.70162 | 9.92548 | 18478 ft | 418 kts | 225° |
| 2026-05-08 05:53 | 50.68083 | 9.89379 | 17709 ft | 414 kts | 225° |
| 2026-05-08 05:53 | 50.66047 | 9.86279 | 16965 ft | 410 kts | 225° |
| 2026-05-08 05:53 | 50.64473 | 9.83886 | 16394 ft | 407 kts | 225° |
| 2026-05-08 05:53 | 50.62444 | 9.80802 | 15682 ft | 404 kts | 225° |
| 2026-05-08 05:54 | 50.60431 | 9.77745 | 14989 ft | 400 kts | 225° |
| 2026-05-08 05:54 | 50.58431 | 9.74714 | 14316 ft | 397 kts | 225° |
| 2026-05-08 05:54 | 50.56452 | 9.71715 | 13620 ft | 393 kts | 225° |
| 2026-05-08 05:54 | 50.54488 | 9.68743 | 12904 ft | 390 kts | 224° |
| 2026-05-08 05:55 | 50.52537 | 9.65794 | 12200 ft | 387 kts | 224° |
| 2026-05-08 05:55 | 50.50605 | 9.62879 | 11563 ft | 383 kts | 224° |
| 2026-05-08 05:55 | 50.48692 | 9.59994 | 11297 ft | 385 kts | 225° |
| 2026-05-08 05:55 | 50.46885 | 9.56880 | 11129 ft | 384 kts | 232° |
| 2026-05-08 05:56 | 50.45382 | 9.53461 | 11115 ft | 378 kts | 237° |
| 2026-05-08 05:56 | 50.43938 | 9.50032 | 11104 ft | 376 kts | 237° |
| 2026-05-08 05:56 | 50.42482 | 9.46622 | 11113 ft | 376 kts | 236° |
| 2026-05-08 05:56 | 50.41018 | 9.43217 | 11116 ft | 377 kts | 236° |
| 2026-05-08 05:57 | 50.39543 | 9.39805 | 11113 ft | 378 kts | 236° |
| 2026-05-08 05:57 | 50.38065 | 9.36395 | 11112 ft | 378 kts | 236° |
| 2026-05-08 05:57 | 50.36585 | 9.32985 | 11112 ft | 379 kts | 236° |
| 2026-05-08 05:57 | 50.35106 | 9.29583 | 11109 ft | 378 kts | 236° |
| 2026-05-08 05:58 | 50.33622 | 9.26176 | 11111 ft | 378 kts | 236° |
| 2026-05-08 05:58 | 50.32141 | 9.22777 | 11112 ft | 378 kts | 236° |
| 2026-05-08 05:58 | 50.30658 | 9.19377 | 11108 ft | 377 kts | 236° |
| 2026-05-08 05:58 | 50.29179 | 9.15994 | 11108 ft | 377 kts | 236° |
| 2026-05-08 05:59 | 50.27701 | 9.12617 | 11104 ft | 376 kts | 236° |
| 2026-05-08 05:59 | 50.26427 | 9.09100 | 11105 ft | 373 kts | 247° |
| 2026-05-08 05:59 | 50.25526 | 9.05268 | 11117 ft | 377 kts | 251° |
| 2026-05-08 05:59 | 50.24691 | 9.01434 | 11112 ft | 378 kts | 251° |
| 2026-05-08 06:00 | 50.23840 | 8.97561 | 11105 ft | 377 kts | 251° |
| 2026-05-08 06:00 | 50.22974 | 8.93706 | 11105 ft | 373 kts | 250° |
| 2026-05-08 06:00 | 50.22104 | 8.89908 | 11108 ft | 371 kts | 250° |
| 2026-05-08 06:00 | 50.21219 | 8.86100 | 11120 ft | 373 kts | 250° |
| 2026-05-08 06:01 | 50.20328 | 8.82297 | 11126 ft | 374 kts | 250° |
| 2026-05-08 06:01 | 50.19431 | 8.78490 | 11126 ft | 374 kts | 250° |
| 2026-05-08 06:01 | 50.18549 | 8.74758 | 11115 ft | 358 kts | 250° |
| 2026-05-08 06:01 | 50.17708 | 8.71207 | 11105 ft | 340 kts | 250° |
| 2026-05-08 06:02 | 50.16899 | 8.67796 | 11050 ft | 330 kts | 250° |
| 2026-05-08 06:02 | 50.16116 | 8.64499 | 10977 ft | 319 kts | 250° |
| 2026-05-08 06:02 | 50.15360 | 8.61320 | 10889 ft | 306 kts | 250° |
| 2026-05-08 06:02 | 50.14634 | 8.58272 | 10783 ft | 295 kts | 250° |
| 2026-05-08 06:03 | 50.13931 | 8.55322 | 10633 ft | 287 kts | 250° |
| 2026-05-08 06:03 | 50.13241 | 8.52426 | 10378 ft | 282 kts | 249° |
| 2026-05-08 06:03 | 50.12557 | 8.49566 | 10049 ft | 281 kts | 249° |
| 2026-05-08 06:03 | 50.11881 | 8.46748 | 9682 ft | 281 kts | 249° |
| 2026-05-08 06:04 | 50.11199 | 8.43905 | 9319 ft | 280 kts | 250° |
| 2026-05-08 06:04 | 50.10508 | 8.41041 | 8975 ft | 278 kts | 250° |
| 2026-05-08 06:04 | 50.09836 | 8.38263 | 8639 ft | 277 kts | 250° |
| 2026-05-08 06:04 | 50.09158 | 8.35461 | 8334 ft | 275 kts | 250° |
| 2026-05-08 06:05 | 50.08484 | 8.32681 | 8013 ft | 274 kts | 250° |
| 2026-05-08 06:05 | 50.07813 | 8.29913 | 7711 ft | 271 kts | 250° |
| 2026-05-08 06:05 | 50.07148 | 8.27172 | 7376 ft | 271 kts | 250° |
| 2026-05-08 06:05 | 50.06482 | 8.24431 | 7086 ft | 269 kts | 250° |
| 2026-05-08 06:06 | 50.05818 | 8.21699 | 6714 ft | 271 kts | 249° |
| 2026-05-08 06:06 | 50.05151 | 8.18957 | 6409 ft | 270 kts | 249° |
| 2026-05-08 06:06 | 50.04487 | 8.16236 | 6083 ft | 269 kts | 249° |
| 2026-05-08 06:06 | 50.03824 | 8.13522 | 5752 ft | 268 kts | 249° |
| 2026-05-08 06:07 | 50.03161 | 8.10812 | 5413 ft | 268 kts | 249° |
| 2026-05-08 06:07 | 50.02509 | 8.08141 | 5093 ft | 267 kts | 249° |
| 2026-05-08 06:07 | 50.01863 | 8.05494 | 5019 ft | 256 kts | 249° |
| 2026-05-08 06:07 | 50.00988 | 8.03220 | 4977 ft | 239 kts | 223° |
| 2026-05-08 06:08 | 49.99555 | 8.02019 | 4968 ft | 237 kts | 190° |
| 2026-05-08 06:08 | 49.97931 | 8.02174 | 4978 ft | 236 kts | 159° |
| 2026-05-08 06:08 | 49.96608 | 8.03613 | 4975 ft | 233 kts | 129° |
| 2026-05-08 06:08 | 49.95687 | 8.05663 | 4988 ft | 234 kts | 123° |
| 2026-05-08 06:09 | 49.94789 | 8.07789 | 4974 ft | 234 kts | 118° |
| 2026-05-08 06:09 | 49.94400 | 8.10201 | 4971 ft | 234 kts | 85° |
| 2026-05-08 06:09 | 49.94803 | 8.12640 | 4990 ft | 236 kts | 69° |
| 2026-05-08 06:09 | 49.95384 | 8.15040 | 4990 ft | 238 kts | 69° |
| 2026-05-08 06:10 | 49.95966 | 8.17460 | 4983 ft | 239 kts | 69° |
| 2026-05-08 06:10 | 49.96557 | 8.19911 | 4635 ft | 244 kts | 69° |
| 2026-05-08 06:10 | 49.97147 | 8.22363 | 4301 ft | 239 kts | 69° |
| 2026-05-08 06:10 | 49.97713 | 8.24718 | 3927 ft | 226 kts | 69° |
| 2026-05-08 06:11 | 49.98247 | 8.26940 | 3613 ft | 213 kts | 69° |
| 2026-05-08 06:11 | 49.98744 | 8.29012 | 3320 ft | 201 kts | 69° |
| 2026-05-08 06:11 | 49.99220 | 8.30995 | 3016 ft | 190 kts | 69° |
| 2026-05-08 06:11 | 49.99674 | 8.32890 | 2764 ft | 186 kts | 69° |
| 2026-05-08 06:12 | 50.00125 | 8.34771 | 2493 ft | 184 kts | 69° |
| 2026-05-08 06:12 | 50.00566 | 8.36611 | 2233 ft | 178 kts | 69° |
| 2026-05-08 06:12 | 50.00984 | 8.38355 | 1991 ft | 165 kts | 70° |
| 2026-05-08 06:12 | 50.01372 | 8.39972 | 1728 ft | 153 kts | 69° |
| 2026-05-08 06:13 | 50.01729 | 8.41463 | 1542 ft | 146 kts | 69° |
| 2026-05-08 06:13 | 50.02083 | 8.42940 | 1331 ft | 144 kts | 69° |
| 2026-05-08 06:13 | 50.02431 | 8.44395 | 1104 ft | 143 kts | 68° |
| 2026-05-08 06:13 | 50.02782 | 8.45861 | 906 ft | 145 kts | 67° |
| 2026-05-08 06:14 | 50.03130 | 8.47312 | 699 ft | 144 kts | 66° |
| 2026-05-08 06:14 | 50.03489 | 8.48751 | 482 ft | 143 kts | 69° |
| 2026-05-08 06:14 | 50.03831 | 8.50205 | 329 ft | 142 kts | 68° |
| 2026-05-08 06:14 | 50.04137 | 8.51496 | 337 ft | 107 kts | 70° |
| 2026-05-08 06:15 | 50.04341 | 8.52352 | 352 ft | 62 kts | 70° |
| 2026-05-08 06:15 | 50.04396 | 8.52777 | 360 ft | 23 kts | 94° |
| 2026-05-08 06:15 | 50.04369 | 8.53026 | 366 ft | 23 kts | 100° |
| 2026-05-08 06:15 | 50.04351 | 8.53275 | 369 ft | 23 kts | 84° |
| 2026-05-08 06:16 | 50.04395 | 8.53518 | 380 ft | 23 kts | 80° |
| 2026-05-08 06:16 | 50.04411 | 8.53769 | 380 ft | 23 kts | 84° |
| 2026-05-08 06:16 | 50.04422 | 8.53935 | 380 ft | 23 kts | 84° |
| 2026-05-08 06:16 | 50.04440 | 8.54186 | 380 ft | 23 kts | 83° |
| 2026-05-08 06:17 | 50.04393 | 8.54674 | 371 ft | 23 kts | 130° |
| 2026-05-08 06:17 | 50.04253 | 8.54806 | 364 ft | 20 kts | 160° |
| 2026-05-08 06:17 | 50.04121 | 8.54881 | 362 ft | 16 kts | 159° |
| 2026-05-08 06:18 | 50.04100 | 8.54893 | 359 ft | 0 kts | 159° |
| 2026-05-08 06:18 | 50.04094 | 8.54897 | 361 ft | 1 kts | 159° |
| 2026-05-08 06:18 | 50.04084 | 8.54903 | 358 ft | 2 kts | 159° |
| 2026-05-08 06:18 | 50.04064 | 8.54914 | 363 ft | 6 kts | 159° |
| 2026-05-08 06:19 | 50.04018 | 8.54976 | 362 ft | 11 kts | 105° |
| 2026-05-08 06:19 | 50.04035 | 8.55080 | 366 ft | 11 kts | 69° |
| 2026-05-08 06:19 | 50.04063 | 8.55195 | 361 ft | 11 kts | 69° |
| 2026-05-08 06:19 | 50.04091 | 8.55313 | 366 ft | 12 kts | 69° |
| 2026-05-08 06:20 | 50.04122 | 8.55445 | 363 ft | 13 kts | 70° |
| 2026-05-08 06:20 | 50.04153 | 8.55583 | 361 ft | 13 kts | 70° |
| 2026-05-08 06:20 | 50.04145 | 8.55642 | 366 ft | 5 kts | 141° |
| 2026-05-08 06:20 | 50.04107 | 8.55665 | 361 ft | 7 kts | 161° |
| 2026-05-08 06:21 | 50.04087 | 8.55676 | 363 ft | 0 kts | 160° |
| 2026-05-08 06:21 | 50.04084 | 8.55678 | 363 ft | 0 kts | 160° |